createdAt,value
2018-08-07T00:00:27.915Z,23.20
2018-08-07T00:03:02.771Z,25.20
2018-08-07T00:05:38.582Z,23.20
2018-08-07T00:08:14.928Z,26.60
2018-08-07T00:10:52.313Z,25.80
2018-08-07T00:16:12.472Z,27.00
2018-08-07T00:18:44.792Z,24.60
2018-08-07T00:21:20.207Z,24.20
2018-08-07T00:23:52.412Z,27.40
2018-08-07T00:26:26.393Z,26.00
2018-08-07T00:29:04.312Z,23.20
2018-08-07T00:34:32.180Z,25.20
2018-08-07T00:37:09.119Z,23.60
2018-08-07T00:39:46.369Z,21.40
2018-08-07T00:42:22.783Z,22.80
2018-08-07T00:45:00.957Z,21.80
2018-08-07T00:47:35.688Z,23.00
2018-08-07T00:50:15.284Z,22.80
2018-08-07T00:52:53.182Z,23.20
2018-08-07T00:55:28.670Z,23.00
2018-08-07T00:58:03.654Z,23.00
2018-08-07T01:00:37.038Z,22.80
2018-08-07T01:03:11.887Z,28.20
2018-08-07T01:05:49.494Z,26.60
2018-08-07T01:08:22.570Z,25.00
2018-08-07T01:11:09.172Z,24.00
2018-08-07T01:13:42.228Z,23.60
2018-08-07T01:16:14.289Z,24.60
2018-08-07T01:18:46.163Z,26.20
2018-08-07T01:21:28.931Z,25.40
2018-08-07T01:24:01.377Z,27.60
2018-08-07T01:26:35.939Z,24.00
2018-08-07T01:36:50.310Z,28.40
2018-08-07T01:39:25.530Z,31.20
2018-08-07T01:41:58.445Z,31.60
2018-08-07T01:44:32.948Z,30.00
2018-08-07T01:47:05.632Z,28.20
2018-08-07T01:49:43.898Z,29.40
2018-08-07T01:52:18.074Z,32.60
2018-08-07T01:54:52.330Z,30.40
2018-08-07T01:57:27.086Z,31.60
2018-08-07T02:00:05.768Z,30.80
2018-08-07T02:02:38.337Z,28.20
2018-08-07T02:05:14.700Z,28.40
2018-08-07T02:07:46.668Z,27.80
2018-08-07T02:10:21.061Z,27.20
2018-08-07T02:12:56.001Z,28.00
2018-08-07T02:15:28.446Z,27.00
2018-08-07T02:18:01.826Z,25.60
2018-08-07T02:20:36.191Z,24.80
2018-08-07T02:23:07.948Z,23.60
2018-08-07T02:25:43.588Z,23.80
2018-08-07T02:28:17.141Z,24.20
2018-08-07T02:30:57.675Z,24.00
2018-08-07T02:33:29.570Z,22.80
2018-08-07T02:36:02.083Z,23.80
2018-08-07T02:38:37.637Z,22.60
2018-08-07T02:41:12.415Z,23.40
2018-08-07T02:43:45.424Z,21.80
2018-08-07T02:46:17.436Z,22.60
2018-08-07T02:48:53.173Z,22.00
2018-08-07T02:51:25.330Z,22.40
2018-08-07T02:53:57.296Z,23.40
2018-08-07T02:56:29.162Z,18.00
2018-08-07T02:59:01.002Z,18.20
2018-08-07T03:01:33.076Z,21.20
2018-08-07T03:04:10.820Z,20.40
2018-08-07T03:06:42.706Z,23.00
2018-08-07T03:09:14.449Z,21.80
2018-08-07T03:11:46.106Z,17.00
2018-08-07T03:14:18.163Z,21.00
2018-08-07T03:16:56.105Z,23.40
2018-08-07T03:19:27.911Z,25.80
2018-08-07T03:21:59.988Z,25.40
2018-08-07T03:24:31.558Z,25.00
2018-08-07T03:27:03.662Z,25.40
2018-08-07T03:29:35.632Z,23.20
2018-08-07T03:32:07.658Z,24.00
2018-08-07T03:34:39.635Z,25.40
2018-08-07T03:37:11.394Z,25.20
2018-08-07T03:39:43.171Z,25.00
2018-08-07T03:42:15.336Z,24.00
2018-08-07T03:44:47.474Z,24.80
2018-08-07T03:47:19.696Z,24.20
2018-08-07T03:49:51.469Z,24.20
2018-08-07T03:52:23.214Z,22.60
2018-08-07T03:54:55.007Z,21.80
2018-08-07T03:57:26.911Z,23.40
2018-08-07T03:59:58.937Z,24.20
2018-08-07T04:02:30.989Z,23.40
2018-08-07T04:05:03.510Z,24.60
2018-08-07T04:07:35.331Z,24.60
2018-08-07T04:10:07.999Z,26.00
2018-08-07T04:12:39.765Z,26.60
2018-08-07T04:15:13.702Z,26.00
2018-08-07T04:17:48.690Z,26.00
2018-08-07T04:20:22.504Z,24.60
2018-08-07T04:22:57.852Z,24.60
2018-08-07T04:25:29.796Z,23.60
2018-08-07T04:28:10.425Z,26.00
2018-08-07T04:30:42.252Z,24.60
2018-08-07T04:33:14.332Z,24.00
2018-08-07T04:35:46.549Z,24.40
2018-08-07T04:38:18.545Z,26.60
2018-08-07T04:40:50.431Z,27.80
2018-08-07T04:43:22.506Z,26.00
2018-08-07T04:46:01.215Z,26.40
2018-08-07T04:48:37.203Z,27.20
2018-08-07T04:51:11.407Z,26.00
2018-08-07T04:53:45.856Z,27.40
2018-08-07T04:56:23.093Z,28.00
2018-08-07T04:58:55.588Z,26.40
2018-08-07T05:01:29.623Z,27.20
2018-08-07T05:04:03.862Z,22.80
2018-08-07T05:06:36.368Z,22.00
2018-08-07T05:09:09.749Z,23.80
2018-08-07T05:11:41.742Z,23.00
2018-08-07T05:14:13.976Z,25.40
2018-08-07T05:16:46.509Z,25.20
2018-08-07T05:19:18.548Z,26.00
2018-08-07T05:21:50.775Z,25.40
2018-08-07T05:24:23.235Z,24.20
2018-08-07T05:26:55.962Z,25.00
2018-08-07T05:29:27.895Z,24.80
2018-08-07T05:31:59.630Z,23.80
2018-08-07T05:34:34.339Z,24.00
2018-08-07T05:37:06.478Z,23.80
2018-08-07T05:39:38.249Z,23.00
2018-08-07T05:42:10.494Z,23.00
2018-08-07T05:44:48.529Z,24.80
2018-08-07T05:47:27.624Z,23.00
2018-08-07T05:50:01.663Z,22.20
2018-08-07T05:52:34.340Z,24.40
2018-08-07T05:55:06.839Z,23.80
2018-08-07T05:57:38.700Z,20.20
2018-08-07T06:00:16.562Z,21.20
2018-08-07T06:02:49.682Z,22.20
2018-08-07T06:05:21.540Z,21.80
2018-08-07T06:07:53.513Z,23.00
2018-08-07T06:10:25.320Z,22.60
2018-08-07T06:12:57.313Z,22.00
2018-08-07T06:15:29.337Z,23.00
2018-08-07T06:18:01.116Z,22.80
2018-08-07T06:20:33.384Z,22.60
2018-08-07T06:23:05.354Z,22.00
2018-08-07T06:25:37.599Z,23.80
2018-08-07T06:28:09.635Z,24.00
2018-08-07T06:30:41.165Z,23.00
2018-08-07T06:33:12.982Z,23.40
2018-08-07T06:35:44.727Z,24.20
2018-08-07T06:38:16.924Z,23.40
2018-08-07T06:40:48.734Z,22.80
2018-08-07T06:43:20.732Z,23.60
2018-08-07T06:45:52.566Z,24.20
2018-08-07T06:48:24.417Z,26.20
2018-08-07T06:50:56.241Z,22.00
2018-08-07T06:53:28.600Z,22.20
2018-08-07T06:56:00.259Z,22.00
2018-08-07T06:58:32.200Z,21.00
2018-08-07T07:01:04.280Z,23.00
2018-08-07T07:03:36.079Z,23.80
2018-08-07T07:06:07.920Z,23.00
2018-08-07T07:08:39.750Z,24.40
2018-08-07T07:11:11.571Z,25.40
2018-08-07T07:13:43.397Z,23.00
2018-08-07T07:16:15.107Z,25.20
2018-08-07T07:18:47.073Z,23.60
2018-08-07T07:21:19.246Z,25.80
2018-08-07T07:23:51.588Z,23.60
2018-08-07T07:26:24.459Z,24.80
2018-08-07T07:28:57.752Z,25.40
2018-08-07T07:31:30.323Z,24.00
2018-08-07T07:34:03.633Z,25.00
2018-08-07T07:36:36.215Z,26.00
2018-08-07T07:39:10.219Z,25.60
2018-08-07T07:41:43.230Z,24.80
2018-08-07T07:44:17.948Z,24.00
2018-08-07T07:46:50.840Z,25.60
2018-08-07T07:49:23.882Z,25.40
2018-08-07T07:51:56.027Z,24.20
2018-08-07T07:54:28.746Z,24.80
2018-08-07T07:57:00.983Z,24.20
2018-08-07T07:59:33.129Z,23.40
2018-08-07T08:02:05.133Z,20.20
2018-08-07T08:04:37.507Z,25.80
2018-08-07T08:07:09.923Z,24.20
2018-08-07T08:09:42.374Z,23.80
2018-08-07T08:12:14.590Z,23.00
2018-08-07T08:14:47.163Z,25.60
2018-08-07T08:17:19.850Z,24.00
2018-08-07T08:19:52.972Z,22.00
2018-08-07T08:22:26.418Z,23.80
2018-08-07T08:24:59.288Z,23.00
2018-08-07T08:27:31.301Z,23.00
2018-08-07T08:30:03.391Z,26.00
2018-08-07T08:32:35.496Z,23.60
2018-08-07T08:35:08.689Z,25.00
2018-08-07T08:37:41.178Z,24.40
2018-08-07T08:40:15.194Z,24.00
2018-08-07T08:42:47.083Z,23.80
2018-08-07T08:45:20.809Z,23.00
2018-08-07T08:47:54.046Z,27.00
2018-08-07T08:50:26.385Z,24.00
2018-08-07T08:52:59.480Z,25.60
2018-08-07T08:55:31.501Z,26.20
2018-08-07T08:58:03.816Z,25.40
2018-08-07T09:00:36.816Z,23.40
2018-08-07T09:03:11.671Z,24.60
2018-08-07T09:05:45.524Z,23.40
2018-08-07T09:08:19.491Z,23.00
2018-08-07T09:10:53.237Z,23.00
2018-08-07T09:13:26.374Z,24.00
2018-08-07T09:16:00.269Z,25.00
2018-08-07T09:18:32.998Z,23.40
2018-08-07T09:21:05.623Z,24.00
2018-08-07T09:23:38.256Z,25.00
2018-08-07T09:26:11.216Z,25.80
2018-08-07T09:28:44.630Z,24.20
2018-08-07T09:31:18.458Z,24.00
2018-08-07T09:33:52.887Z,23.80
2018-08-07T09:36:26.574Z,23.40
2018-08-07T09:39:00.616Z,24.00
2018-08-07T09:41:34.041Z,24.00
2018-08-07T09:44:09.000Z,24.20
2018-08-07T09:46:43.598Z,22.60
2018-08-07T09:49:19.630Z,23.60
2018-08-07T09:51:57.543Z,22.40
2018-08-07T09:54:29.375Z,23.60
2018-08-07T09:57:01.878Z,22.60
2018-08-07T09:59:33.813Z,24.20
2018-08-07T10:02:10.872Z,23.80
2018-08-07T10:04:42.949Z,22.00
2018-08-07T10:07:16.825Z,22.60
2018-08-07T10:09:49.342Z,23.00
2018-08-07T10:12:22.453Z,23.80
2018-08-07T10:14:54.192Z,21.80
2018-08-07T10:17:26.243Z,22.20
2018-08-07T10:19:58.794Z,22.00
2018-08-07T10:22:30.461Z,22.00
2018-08-07T10:25:03.037Z,22.60
2018-08-07T10:27:36.651Z,22.40
2018-08-07T10:30:15.388Z,24.00
2018-08-07T10:32:52.130Z,23.20
2018-08-07T10:35:27.035Z,23.80
2018-08-07T10:38:03.233Z,23.20
2018-08-07T10:40:39.023Z,22.20
2018-08-07T10:43:15.345Z,23.00
2018-08-07T10:45:50.279Z,23.00
2018-08-07T10:48:25.110Z,22.80
2018-08-07T10:50:58.266Z,23.00
2018-08-07T10:53:33.016Z,24.00
2018-08-07T10:56:05.664Z,23.20
2018-08-07T10:58:42.725Z,23.00
2018-08-07T11:01:16.008Z,21.40
2018-08-07T11:03:47.837Z,24.60
2018-08-07T11:06:19.598Z,21.80
2018-08-07T11:08:54.527Z,21.00
2018-08-07T11:11:29.316Z,22.00
2018-08-07T11:14:02.101Z,22.00
2018-08-07T11:16:33.696Z,21.00
2018-08-07T11:19:05.580Z,23.40
2018-08-07T11:21:37.760Z,22.20
2018-08-07T11:24:09.377Z,22.80
2018-08-07T11:26:41.453Z,22.80
2018-08-07T11:29:12.962Z,21.00
2018-08-07T11:31:44.830Z,22.40
2018-08-07T11:34:16.304Z,22.00
2018-08-07T11:36:48.123Z,22.60
2018-08-07T11:39:19.805Z,23.60
2018-08-07T11:41:51.615Z,23.40
2018-08-07T11:44:23.411Z,23.80
2018-08-07T11:46:55.251Z,22.40
2018-08-07T11:49:27.026Z,22.60
2018-08-07T11:51:58.806Z,22.20
2018-08-07T11:54:30.492Z,22.60
2018-08-07T11:57:02.467Z,21.60
2018-08-07T11:59:34.796Z,20.80
2018-08-07T12:02:06.902Z,20.60
2018-08-07T12:04:38.568Z,17.60
2018-08-07T12:07:10.172Z,20.40
2018-08-07T12:09:41.975Z,21.20
2018-08-07T12:12:13.825Z,20.60
2018-08-07T12:14:45.698Z,21.60
2018-08-07T12:17:17.627Z,20.40
2018-08-07T12:19:49.157Z,23.00
2018-08-07T12:22:21.039Z,18.60
2018-08-07T12:24:52.925Z,20.60
2018-08-07T12:27:24.625Z,22.20
2018-08-07T12:29:56.411Z,19.40
2018-08-07T12:32:28.206Z,20.80
2018-08-07T12:34:59.800Z,19.80
2018-08-07T12:37:32.363Z,19.20
2018-08-07T12:40:05.241Z,18.60
2018-08-07T12:42:36.942Z,18.60
2018-08-07T12:45:09.258Z,15.20
2018-08-07T12:47:42.993Z,21.20
2018-08-07T12:50:16.334Z,20.20
2018-08-07T12:52:48.423Z,21.00
2018-08-07T12:55:23.042Z,22.00
2018-08-07T12:57:55.588Z,20.20
2018-08-07T13:00:29.384Z,21.40
2018-08-07T13:03:02.296Z,22.20
2018-08-07T13:05:34.422Z,23.00
2018-08-07T13:08:06.434Z,20.80
2018-08-07T13:10:38.668Z,21.40
2018-08-07T13:13:10.972Z,23.00
2018-08-07T13:15:43.565Z,21.00
2018-08-07T13:18:15.624Z,21.20
2018-08-07T13:20:48.231Z,21.20
2018-08-07T13:23:21.424Z,22.20
2018-08-07T13:25:54.941Z,22.80
2018-08-07T13:28:27.023Z,22.40
2018-08-07T13:30:58.996Z,22.20
2018-08-07T13:33:31.348Z,21.20
2018-08-07T13:36:03.417Z,21.80
2018-08-07T13:38:35.841Z,22.40
2018-08-07T13:41:08.575Z,22.00
2018-08-07T13:43:40.993Z,20.80
2018-08-07T13:46:13.374Z,23.00
2018-08-07T13:48:45.390Z,22.60
2018-08-07T13:51:17.575Z,20.80
2018-08-07T13:53:50.474Z,22.20
2018-08-07T13:56:22.743Z,23.60
2018-08-07T13:58:54.699Z,21.60
2018-08-07T14:01:26.983Z,17.00
2018-08-07T14:03:59.219Z,19.60
2018-08-07T14:06:31.419Z,23.20
2018-08-07T14:09:03.415Z,23.40
2018-08-07T14:11:35.753Z,21.80
2018-08-07T14:14:07.914Z,21.60
2018-08-07T14:16:39.930Z,22.20
2018-08-07T14:19:12.125Z,24.20
2018-08-07T14:21:44.366Z,26.60
2018-08-07T14:24:16.108Z,25.20
2018-08-07T14:26:48.431Z,25.00
2018-08-07T14:29:20.239Z,23.60
2018-08-07T14:39:36.712Z,21.00
2018-08-07T14:42:09.464Z,22.80
2018-08-07T14:44:42.826Z,22.20
2018-08-07T14:47:15.833Z,24.80
2018-08-07T14:49:48.620Z,24.60
2018-08-07T14:52:21.710Z,22.40
2018-08-07T14:54:55.007Z,22.80
2018-08-07T14:57:27.016Z,23.20
2018-08-07T14:59:59.313Z,23.40
2018-08-07T15:02:31.863Z,23.40
2018-08-07T15:05:05.484Z,23.20
2018-08-07T15:07:38.150Z,22.20
2018-08-07T15:10:17.189Z,19.00
2018-08-07T15:12:50.157Z,21.80
2018-08-07T15:15:24.291Z,19.40
2018-08-07T15:17:56.246Z,22.40
2018-08-07T15:20:30.508Z,20.60
2018-08-07T15:23:03.492Z,22.20
2018-08-07T15:25:36.221Z,21.20
2018-08-07T15:28:09.568Z,21.00
2018-08-07T15:30:42.264Z,22.80
2018-08-07T15:33:14.202Z,22.80
2018-08-07T15:35:46.866Z,23.60
2018-08-07T15:38:20.276Z,22.60
2018-08-07T15:40:53.323Z,24.40
2018-08-07T15:43:25.452Z,23.60
2018-08-07T15:45:57.589Z,22.00
2018-08-07T15:48:30.014Z,23.60
2018-08-07T15:51:02.906Z,24.00
2018-08-07T15:53:35.691Z,24.80
2018-08-07T15:56:07.974Z,24.60
2018-08-07T15:58:41.046Z,22.80
2018-08-07T16:01:13.080Z,23.60
2018-08-07T16:03:44.968Z,24.60
2018-08-07T16:06:17.020Z,22.20
2018-08-07T16:08:49.709Z,22.20
2018-08-07T16:11:22.041Z,23.40
2018-08-07T16:13:53.785Z,23.20
2018-08-07T16:16:26.267Z,20.80
2018-08-07T16:18:59.047Z,21.40
2018-08-07T16:21:31.048Z,22.60
2018-08-07T16:24:03.034Z,22.20
2018-08-07T16:26:35.521Z,20.60
2018-08-07T16:29:08.348Z,21.40
2018-08-07T16:31:42.126Z,20.20
2018-08-07T16:34:14.401Z,20.60
2018-08-07T16:36:47.430Z,19.40
2018-08-07T16:39:20.600Z,20.80
2018-08-07T16:41:52.969Z,21.40
2018-08-07T16:44:25.851Z,21.20
2018-08-07T16:46:57.917Z,20.40
2018-08-07T16:49:29.935Z,19.20
2018-08-07T16:52:02.410Z,20.80
2018-08-07T16:54:34.983Z,21.20
2018-08-07T16:57:07.088Z,20.60
2018-08-07T16:59:39.614Z,20.60
2018-08-07T17:02:11.982Z,22.20
2018-08-07T17:04:44.239Z,20.20
2018-08-07T17:07:16.982Z,19.20
2018-08-07T17:09:49.002Z,17.60
2018-08-07T17:12:21.112Z,17.40
2018-08-07T17:14:53.119Z,17.40
2018-08-07T17:17:25.570Z,17.60
2018-08-07T17:19:58.105Z,19.20
2018-08-07T17:22:31.078Z,18.00
2018-08-07T17:25:03.246Z,16.40
2018-08-07T17:27:35.682Z,17.40
2018-08-07T17:30:10.905Z,18.20
2018-08-07T17:32:43.048Z,20.20
2018-08-07T17:35:23.233Z,18.80
2018-08-07T17:37:58.258Z,16.20
2018-08-07T17:40:31.466Z,19.20
2018-08-07T17:43:04.806Z,12.40
2018-08-07T17:45:37.490Z,19.20
2018-08-07T17:48:10.039Z,14.60
2018-08-07T17:50:42.037Z,15.80
2018-08-07T17:53:14.674Z,16.00
2018-08-07T17:55:47.281Z,17.40
2018-08-07T17:58:19.566Z,15.60
2018-08-07T18:00:51.751Z,15.60
2018-08-07T18:03:23.770Z,16.60
2018-08-07T18:05:55.574Z,17.00
2018-08-07T18:08:27.807Z,16.60
2018-08-07T18:10:59.860Z,17.00
2018-08-07T18:13:32.142Z,16.00
2018-08-07T18:16:05.331Z,17.40
2018-08-07T18:18:38.704Z,15.60
2018-08-07T18:21:12.087Z,18.60
2018-08-07T18:23:45.098Z,16.80
2018-08-07T18:26:17.172Z,20.20
2018-08-07T18:28:50.452Z,14.20
2018-08-07T18:31:23.816Z,19.20
2018-08-07T18:33:56.670Z,17.60
2018-08-07T18:36:29.154Z,14.60
2018-08-07T18:39:01.658Z,15.40
2018-08-07T18:41:33.915Z,16.60
2018-08-07T18:44:06.048Z,17.80
2018-08-07T18:46:38.431Z,15.40
2018-08-07T18:49:10.478Z,17.20
2018-08-07T18:51:42.222Z,18.00
2018-08-07T18:54:14.033Z,16.00
2018-08-07T18:56:45.743Z,15.60
2018-08-07T18:59:17.575Z,16.00
2018-08-07T19:01:49.573Z,14.60
2018-08-07T19:04:21.241Z,13.80
2018-08-07T19:06:52.982Z,15.60
2018-08-07T19:09:24.885Z,15.00
2018-08-07T19:11:56.390Z,16.60
2018-08-07T19:14:28.089Z,16.00
2018-08-07T19:16:59.757Z,15.20
2018-08-07T19:19:31.627Z,14.40
2018-08-07T19:22:03.526Z,16.60
2018-08-07T19:24:35.048Z,17.80
2018-08-07T19:27:06.903Z,16.40
2018-08-07T19:29:38.533Z,17.80
2018-08-07T19:32:10.343Z,16.60
2018-08-07T19:34:42.176Z,17.80
2018-08-07T19:37:13.956Z,13.40
2018-08-07T19:39:45.948Z,14.40
2018-08-07T19:42:17.682Z,14.40
2018-08-07T19:44:49.531Z,13.80
2018-08-07T19:47:21.373Z,14.00
2018-08-07T19:49:53.061Z,15.00
2018-08-07T19:52:24.711Z,13.40
2018-08-07T19:54:56.606Z,13.60
2018-08-07T19:57:28.481Z,13.00
2018-08-07T20:00:00.366Z,10.20
2018-08-07T20:02:32.742Z,12.80
2018-08-07T20:05:04.561Z,12.00
2018-08-07T20:07:36.408Z,12.80
2018-08-07T20:10:09.932Z,13.00
2018-08-07T20:12:41.883Z,14.20
2018-08-07T20:15:18.362Z,12.00
2018-08-07T20:17:50.816Z,12.80
2018-08-07T20:20:23.150Z,14.60
2018-08-07T20:22:55.715Z,14.40
2018-08-07T20:25:27.931Z,15.00
2018-08-07T20:27:59.672Z,15.80
2018-08-07T20:30:31.667Z,12.00
2018-08-07T20:33:03.330Z,13.40
2018-08-07T20:35:35.048Z,13.20
2018-08-07T20:38:06.963Z,10.40
2018-08-07T20:40:39.930Z,11.40
2018-08-07T20:43:11.664Z,12.60
2018-08-07T20:45:43.687Z,13.40
2018-08-07T20:48:15.333Z,13.00
2018-08-07T20:50:47.434Z,13.20
2018-08-07T20:53:19.076Z,12.20
2018-08-07T20:55:50.894Z,11.00
2018-08-07T20:58:22.323Z,12.60
2018-08-07T21:00:54.278Z,13.80
2018-08-07T21:03:26.274Z,14.20
2018-08-07T21:05:58.126Z,13.60
2018-08-07T21:08:29.743Z,10.80
2018-08-07T21:11:10.948Z,11.80
2018-08-07T21:13:42.650Z,13.60
2018-08-07T21:16:14.642Z,14.20
2018-08-07T21:18:46.730Z,12.40
2018-08-07T21:21:18.793Z,13.60
2018-08-07T21:23:50.848Z,12.60
2018-08-07T21:26:23.084Z,12.00
2018-08-07T21:28:54.697Z,12.00
2018-08-07T21:31:26.631Z,13.00
2018-08-07T21:33:58.410Z,13.20
2018-08-07T21:36:30.470Z,12.20
2018-08-07T21:39:01.953Z,11.40
2018-08-07T21:42:58.040Z,13.00
2018-08-07T21:45:30.050Z,14.20
2018-08-07T21:48:01.904Z,15.00
2018-08-07T21:50:33.516Z,12.60
2018-08-07T21:53:05.372Z,13.60
2018-08-07T21:55:36.978Z,15.00
2018-08-07T21:58:08.945Z,12.40
2018-08-07T22:00:47.889Z,11.40
2018-08-07T22:03:20.289Z,15.20
2018-08-07T22:05:52.531Z,12.20
2018-08-07T22:08:24.492Z,16.60
2018-08-07T22:10:56.232Z,13.20
2018-08-07T22:13:28.185Z,15.20
2018-08-07T22:15:59.760Z,14.00
2018-08-07T22:18:31.760Z,14.00
2018-08-07T22:21:03.815Z,13.40
2018-08-07T22:23:35.997Z,13.60
2018-08-07T22:26:07.753Z,12.00
2018-08-07T22:28:39.824Z,13.20
2018-08-07T22:31:11.339Z,15.00
2018-08-07T22:33:43.192Z,13.80
2018-08-07T22:36:14.717Z,13.60
2018-08-07T22:38:46.355Z,13.20
2018-08-07T22:41:18.009Z,12.40
2018-08-07T22:43:49.767Z,12.60
2018-08-07T22:46:21.089Z,13.40
2018-08-07T22:48:52.888Z,12.20
2018-08-07T22:51:24.474Z,14.00
2018-08-07T22:53:56.133Z,13.20
2018-08-07T22:56:27.895Z,13.20
2018-08-07T22:58:59.780Z,15.00
2018-08-07T23:01:31.539Z,13.20
2018-08-07T23:04:03.359Z,14.00
2018-08-07T23:06:35.463Z,12.80
2018-08-07T23:09:08.961Z,14.40
2018-08-07T23:11:40.421Z,14.00
2018-08-07T23:14:12.332Z,16.00
2018-08-07T23:16:43.955Z,15.80
2018-08-07T23:19:15.898Z,14.40
2018-08-07T23:21:47.811Z,15.40
2018-08-07T23:24:19.878Z,15.40
2018-08-07T23:26:51.682Z,16.60
2018-08-07T23:29:23.479Z,17.00
2018-08-07T23:31:54.951Z,17.80
2018-08-07T23:34:26.714Z,16.80
2018-08-07T23:36:58.398Z,18.00
2018-08-07T23:39:30.226Z,16.60
2018-08-07T23:42:02.078Z,17.20
2018-08-07T23:44:34.002Z,16.20
2018-08-07T23:47:05.606Z,16.20
2018-08-07T23:49:37.448Z,14.40
2018-08-07T23:52:09.532Z,15.60
2018-08-07T23:54:41.445Z,15.20
2018-08-07T23:57:13.259Z,16.60
2018-08-07T23:59:45.010Z,14.20
